createdAt,value
2023-04-18T00:00:28.679Z,32.15
2023-04-18T00:03:00.922Z,32.72
2023-04-18T00:05:43.279Z,33.30
2023-04-18T00:08:12.737Z,32.45
2023-04-18T00:10:42.374Z,30.98
2023-04-18T00:13:13.202Z,33.58
2023-04-18T00:15:44.848Z,34.08
2023-04-18T00:18:19.031Z,33.28
2023-04-18T00:20:48.583Z,34.28
2023-04-18T00:23:17.921Z,34.80
2023-04-18T00:25:47.196Z,34.10
2023-04-18T00:28:16.652Z,32.10
2023-04-18T00:30:47.320Z,33.90
2023-04-18T00:33:16.815Z,33.65
2023-04-18T00:35:46.213Z,39.75
2023-04-18T00:38:15.500Z,34.20
2023-04-18T00:40:44.913Z,35.88
2023-04-18T00:43:17.985Z,34.50
2023-04-18T00:45:47.337Z,35.40
2023-04-18T00:51:01.419Z,34.33
2023-04-18T00:53:31.904Z,34.33
2023-04-18T00:56:01.259Z,36.40
2023-04-18T00:58:32.336Z,34.40
2023-04-18T01:01:08.716Z,33.45
2023-04-18T01:03:38.773Z,32.97
2023-04-18T01:06:08.380Z,36.03
2023-04-18T01:08:39.284Z,35.20
2023-04-18T01:11:08.621Z,34.63
2023-04-18T01:13:37.910Z,35.10
2023-04-18T01:16:07.708Z,35.83
2023-04-18T01:18:38.114Z,35.75
2023-04-18T01:21:08.052Z,39.13
2023-04-18T01:23:38.525Z,35.08
2023-04-18T01:26:08.598Z,35.25
2023-04-18T01:28:39.142Z,34.30
2023-04-18T01:31:08.849Z,35.78
2023-04-18T01:33:41.465Z,35.47
2023-04-18T01:36:10.894Z,37.35
2023-04-18T01:38:40.301Z,34.08
2023-04-18T01:41:09.671Z,35.70
2023-04-18T01:43:39.003Z,39.15
2023-04-18T01:48:51.786Z,34.83
2023-04-18T01:51:21.131Z,33.88
2023-04-18T01:53:50.888Z,33.33
2023-04-18T01:56:25.865Z,35.58
2023-04-18T02:01:40.612Z,34.72
2023-04-18T02:04:10.082Z,33.42
2023-04-18T02:06:41.179Z,33.65
2023-04-18T02:09:10.680Z,34.67
2023-04-18T02:11:42.981Z,33.75
2023-04-18T02:14:18.120Z,34.72
2023-04-18T02:16:51.343Z,35.30
2023-04-18T02:19:21.451Z,33.78
2023-04-18T02:21:50.957Z,33.83
2023-04-18T02:24:20.678Z,33.78
2023-04-18T02:26:50.683Z,33.97
2023-04-18T02:29:19.993Z,34.58
2023-04-18T02:31:49.369Z,33.65
2023-04-18T02:34:18.772Z,34.22
2023-04-18T02:36:48.649Z,35.22
2023-04-18T02:39:17.947Z,34.22
2023-04-18T02:41:47.326Z,31.85
2023-04-18T02:44:28.329Z,33.38
2023-04-18T02:46:57.628Z,32.65
2023-04-18T02:49:27.047Z,32.47
2023-04-18T02:51:59.750Z,31.63
2023-04-18T02:54:29.192Z,32.63
2023-04-18T02:59:40.888Z,32.63
2023-04-18T03:02:10.342Z,31.33
2023-04-18T03:04:39.790Z,30.50
2023-04-18T03:07:09.129Z,30.70
2023-04-18T03:09:38.401Z,29.50
2023-04-18T03:12:07.899Z,31.13
2023-04-18T03:14:37.394Z,28.85
2023-04-18T03:17:07.113Z,30.92
2023-04-18T03:19:36.450Z,29.15
2023-04-18T03:22:05.837Z,30.45
2023-04-18T03:24:35.179Z,29.48
2023-04-18T03:27:04.464Z,32.00
2023-04-18T03:29:33.823Z,31.63
2023-04-18T03:32:03.063Z,32.65
2023-04-18T03:34:32.422Z,32.15
2023-04-18T03:37:02.182Z,34.45
2023-04-18T03:39:31.452Z,31.45
2023-04-18T03:42:00.597Z,33.97
2023-04-18T03:44:29.967Z,32.10
2023-04-18T03:46:59.158Z,30.98
2023-04-18T03:49:28.370Z,30.70
2023-04-18T03:51:57.559Z,30.83
2023-04-18T03:54:26.896Z,31.73
2023-04-18T03:56:56.767Z,29.23
2023-04-18T03:59:26.085Z,28.52
2023-04-18T04:01:55.366Z,28.27
2023-04-18T04:04:24.616Z,28.05
2023-04-18T04:06:53.916Z,27.95
2023-04-18T04:09:23.200Z,28.58
2023-04-18T04:11:52.625Z,26.10
2023-04-18T04:14:22.632Z,26.20
2023-04-18T04:16:53.177Z,26.40
2023-04-18T04:19:22.519Z,25.20
2023-04-18T04:21:52.119Z,25.27
2023-04-18T04:24:23.665Z,25.08
2023-04-18T04:26:53.064Z,25.48
2023-04-18T04:29:22.523Z,26.30
2023-04-18T04:31:51.833Z,24.30
2023-04-18T04:34:21.405Z,25.30
2023-04-18T04:36:52.067Z,24.45
2023-04-18T04:39:21.549Z,25.20
2023-04-18T04:41:54.409Z,25.67
2023-04-18T04:44:27.077Z,26.50
2023-04-18T04:46:57.066Z,26.58
2023-04-18T04:49:26.388Z,26.90
2023-04-18T04:51:55.613Z,27.33
2023-04-18T04:54:24.952Z,27.13
2023-04-18T04:56:54.219Z,27.90
2023-04-18T04:59:23.627Z,27.20
2023-04-18T05:01:52.902Z,28.38
2023-04-18T05:04:22.397Z,26.17
2023-04-18T05:06:52.165Z,26.70
2023-04-18T05:09:21.487Z,27.40
2023-04-18T05:11:50.803Z,26.90
2023-04-18T05:14:21.719Z,26.10
2023-04-18T05:16:51.304Z,28.55
2023-04-18T05:19:21.395Z,27.10
2023-04-18T05:21:50.697Z,26.27
2023-04-18T05:24:20.380Z,28.60
2023-04-18T05:26:49.830Z,27.17
2023-04-18T05:29:19.142Z,28.38
2023-04-18T05:31:48.516Z,28.05
2023-04-18T05:34:17.905Z,26.40
2023-04-18T05:36:48.766Z,27.00
2023-04-18T05:39:18.145Z,27.40
2023-04-18T05:41:47.488Z,28.88
2023-04-18T05:44:18.637Z,27.75
2023-04-18T05:46:52.235Z,27.63
2023-04-18T05:49:22.112Z,27.08
2023-04-18T05:51:51.588Z,26.85
2023-04-18T05:54:26.064Z,26.90
2023-04-18T05:56:56.380Z,24.13
2023-04-18T05:59:27.869Z,27.20
2023-04-18T06:01:57.554Z,25.35
2023-04-18T06:04:27.049Z,26.23
2023-04-18T06:06:56.531Z,26.00
2023-04-18T06:09:25.852Z,25.30
2023-04-18T06:11:55.150Z,25.67
2023-04-18T06:14:24.412Z,26.00
2023-04-18T06:16:53.756Z,25.90
2023-04-18T06:19:24.198Z,24.60
2023-04-18T06:21:54.995Z,25.73
2023-04-18T06:24:24.803Z,25.23
2023-04-18T06:26:56.707Z,26.75
2023-04-18T06:29:28.219Z,26.42
2023-04-18T06:31:58.709Z,27.88
2023-04-18T06:34:28.173Z,26.98
2023-04-18T06:36:57.731Z,25.92
2023-04-18T06:39:28.870Z,27.70
2023-04-18T06:41:59.673Z,27.85
2023-04-18T06:44:29.009Z,28.75
2023-04-18T06:46:58.482Z,27.63
2023-04-18T06:49:28.026Z,28.77
2023-04-18T06:51:57.424Z,28.73
2023-04-18T06:54:26.853Z,25.75
2023-04-18T06:56:56.959Z,26.70
2023-04-18T06:59:26.296Z,27.65
2023-04-18T07:01:55.693Z,25.83
2023-04-18T07:04:25.330Z,27.50
2023-04-18T07:06:54.859Z,26.48
2023-04-18T07:09:24.183Z,25.30
2023-04-18T07:11:53.890Z,25.95
2023-04-18T07:14:26.255Z,26.15
2023-04-18T07:16:55.808Z,25.67
2023-04-18T07:19:25.802Z,26.20
2023-04-18T07:21:56.940Z,26.35
2023-04-18T07:24:26.326Z,26.40
2023-04-18T07:26:56.203Z,26.17
2023-04-18T07:29:25.537Z,24.95
2023-04-18T07:31:54.952Z,25.40
2023-04-18T07:34:24.336Z,26.17
2023-04-18T07:36:53.776Z,27.05
2023-04-18T07:39:23.234Z,25.23
2023-04-18T07:41:52.610Z,26.35
2023-04-18T07:44:22.943Z,26.27
2023-04-18T07:46:52.905Z,25.73
2023-04-18T07:49:22.182Z,25.60
2023-04-18T07:51:51.620Z,25.85
2023-04-18T07:54:21.136Z,25.67
2023-04-18T07:56:52.780Z,25.52
2023-04-18T07:59:22.095Z,25.08
2023-04-18T08:01:51.462Z,26.08
2023-04-18T08:04:20.984Z,25.73
2023-04-18T08:06:50.389Z,26.38
2023-04-18T08:09:21.521Z,25.67
2023-04-18T08:11:50.884Z,25.60
2023-04-18T08:14:20.200Z,25.30
2023-04-18T08:16:49.648Z,24.67
2023-04-18T08:19:19.170Z,25.38
2023-04-18T08:21:51.806Z,25.60
2023-04-18T08:24:21.161Z,26.30
2023-04-18T08:26:50.628Z,25.90
2023-04-18T08:29:19.948Z,25.13
2023-04-18T08:31:49.321Z,24.35
2023-04-18T08:34:18.753Z,25.70
2023-04-18T08:36:48.170Z,26.30
2023-04-18T08:39:17.713Z,26.73
2023-04-18T08:42:00.665Z,26.05
2023-04-18T08:44:31.092Z,25.48
2023-04-18T08:47:04.030Z,26.13
2023-04-18T08:49:33.798Z,25.50
2023-04-18T08:52:06.556Z,25.95
2023-04-18T08:54:38.240Z,25.27
2023-04-18T08:57:09.835Z,25.58
2023-04-18T08:59:39.473Z,24.25
2023-04-18T09:02:11.270Z,24.85
2023-04-18T09:04:50.028Z,25.45
2023-04-18T09:07:32.506Z,26.50
2023-04-18T09:10:02.079Z,26.67
2023-04-18T09:12:33.639Z,26.05
2023-04-18T09:15:17.166Z,24.67
2023-04-18T09:17:57.220Z,25.15
2023-04-18T09:20:42.109Z,24.98
2023-04-18T09:23:17.381Z,23.65
2023-04-18T09:25:49.156Z,25.10
2023-04-18T09:28:35.233Z,27.30
2023-04-18T09:31:17.641Z,25.05
2023-04-18T09:34:03.415Z,24.98
2023-04-18T09:36:33.267Z,26.25
2023-04-18T09:39:03.012Z,24.70
2023-04-18T09:41:33.635Z,25.67
2023-04-18T09:44:15.298Z,24.50
2023-04-18T09:46:47.594Z,25.25
2023-04-18T09:49:19.587Z,25.60
2023-04-18T09:51:51.891Z,24.55
2023-04-18T09:54:22.096Z,25.13
2023-04-18T09:56:54.995Z,24.83
2023-04-18T09:59:52.563Z,24.85
2023-04-18T10:02:29.542Z,23.73
2023-04-18T10:05:01.789Z,25.10
2023-04-18T10:07:33.701Z,28.00
2023-04-18T10:10:02.876Z,25.75
2023-04-18T10:12:32.531Z,24.35
2023-04-18T10:15:03.170Z,24.25
2023-04-18T10:18:05.827Z,25.25
2023-04-18T10:20:36.783Z,25.00
2023-04-18T10:23:44.079Z,24.75
2023-04-18T10:26:13.574Z,25.95
2023-04-18T10:29:00.384Z,24.98
2023-04-18T10:31:30.950Z,25.00
2023-04-18T10:34:05.647Z,25.58
2023-04-18T10:36:35.829Z,24.70
2023-04-18T10:39:26.495Z,25.02
2023-04-18T10:41:55.690Z,24.92
2023-04-18T10:44:25.277Z,25.02
2023-04-18T10:46:54.543Z,24.80
2023-04-18T10:49:35.352Z,23.77
2023-04-18T10:52:10.866Z,25.58
2023-04-18T10:54:59.130Z,25.55
2023-04-18T10:57:40.994Z,26.05
2023-04-18T11:00:13.703Z,25.65
2023-04-18T11:02:53.778Z,26.83
2023-04-18T11:05:29.921Z,26.95
2023-04-18T11:07:59.166Z,25.73
2023-04-18T11:10:30.359Z,25.95
2023-04-18T11:13:05.412Z,26.20
2023-04-18T11:15:38.244Z,26.55
2023-04-18T11:18:07.862Z,26.42
2023-04-18T11:20:51.377Z,26.58
2023-04-18T11:23:25.950Z,26.50
2023-04-18T11:25:57.622Z,25.98
2023-04-18T11:28:27.849Z,26.38
2023-04-18T11:31:03.853Z,25.05
2023-04-18T11:33:33.468Z,26.27
2023-04-18T11:36:02.739Z,25.67
2023-04-18T11:38:32.423Z,25.00
2023-04-18T11:41:04.686Z,25.98
2023-04-18T11:43:33.890Z,26.52
2023-04-18T11:46:03.160Z,26.45
2023-04-18T11:48:44.271Z,25.45
2023-04-18T11:51:36.861Z,26.55
2023-04-18T11:54:06.382Z,26.75
2023-04-18T11:56:36.811Z,27.17
2023-04-18T11:59:12.354Z,25.67
2023-04-18T12:01:41.782Z,26.30
2023-04-18T12:04:11.180Z,27.08
2023-04-18T12:06:55.093Z,27.40
2023-04-18T12:09:26.221Z,27.48
2023-04-18T12:12:06.216Z,27.50
2023-04-18T12:14:37.787Z,26.73
2023-04-18T12:17:07.388Z,28.17
2023-04-18T12:19:37.049Z,27.23
2023-04-18T12:22:07.508Z,27.10
2023-04-18T12:24:37.092Z,28.38
2023-04-18T12:27:06.437Z,26.42
2023-04-18T12:29:35.738Z,27.30
2023-04-18T12:32:05.188Z,27.73
2023-04-18T12:34:34.507Z,27.77
2023-04-18T12:37:05.908Z,28.15
2023-04-18T12:39:35.241Z,27.40
2023-04-18T12:42:04.609Z,26.85
2023-04-18T12:44:34.170Z,28.02
2023-04-18T12:47:03.578Z,27.85
2023-04-18T12:49:32.909Z,27.63
2023-04-18T12:52:02.216Z,27.60
2023-04-18T12:54:32.057Z,28.02
2023-04-18T12:57:02.779Z,28.77
2023-04-18T12:59:32.070Z,28.60
2023-04-18T13:02:03.777Z,28.80
2023-04-18T13:04:33.379Z,28.20
2023-04-18T13:07:02.999Z,28.02
2023-04-18T13:09:37.015Z,28.25
2023-04-18T13:12:06.618Z,28.45
2023-04-18T13:14:38.138Z,28.90
2023-04-18T13:17:11.736Z,28.67
2023-04-18T13:19:43.427Z,29.88
2023-04-18T13:22:13.709Z,29.08
2023-04-18T13:24:47.202Z,29.77
2023-04-18T13:27:19.941Z,28.77
2023-04-18T13:29:52.612Z,28.80
2023-04-18T13:32:23.465Z,30.15
2023-04-18T13:34:53.058Z,30.27
2023-04-18T13:37:22.412Z,29.20
2023-04-18T13:39:51.934Z,30.15
2023-04-18T13:42:21.430Z,30.38
2023-04-18T13:44:51.358Z,28.80
2023-04-18T13:47:21.424Z,28.30
2023-04-18T13:49:51.001Z,29.58
2023-04-18T13:52:20.275Z,28.30
2023-04-18T13:54:50.114Z,29.55
2023-04-18T13:57:19.477Z,30.92
2023-04-18T13:59:48.757Z,28.30
2023-04-18T14:02:18.406Z,29.42
2023-04-18T14:04:47.886Z,29.60
2023-04-18T14:07:17.530Z,29.85
2023-04-18T14:09:49.180Z,27.23
2023-04-18T14:12:18.468Z,30.15
2023-04-18T14:14:47.775Z,29.00
2023-04-18T14:17:17.117Z,28.25
2023-04-18T14:19:46.740Z,30.05
2023-04-18T14:22:16.108Z,28.25
2023-04-18T14:24:45.490Z,27.58
2023-04-18T14:27:14.763Z,27.45
2023-04-18T14:29:44.020Z,28.27
2023-04-18T14:32:13.465Z,27.60
2023-04-18T14:34:43.767Z,28.73
2023-04-18T14:37:13.852Z,28.27
2023-04-18T14:39:44.273Z,29.80
2023-04-18T14:42:13.623Z,29.02
2023-04-18T14:44:43.083Z,29.48
2023-04-18T14:47:12.483Z,28.00
2023-04-18T14:49:41.785Z,30.15
2023-04-18T14:52:11.071Z,28.67
2023-04-18T14:54:40.337Z,29.85
2023-04-18T14:57:11.360Z,29.75
2023-04-18T14:59:40.599Z,29.67
2023-04-18T15:02:10.064Z,29.35
2023-04-18T15:04:40.051Z,29.40
2023-04-18T15:07:09.711Z,29.58
2023-04-18T15:09:42.527Z,27.67
2023-04-18T15:12:12.383Z,28.35
2023-04-18T15:14:41.963Z,28.85
2023-04-18T15:17:11.375Z,28.27
2023-04-18T15:19:40.640Z,27.85
2023-04-18T15:22:10.036Z,28.45
2023-04-18T15:24:39.268Z,27.52
2023-04-18T15:27:09.023Z,27.90
2023-04-18T15:29:39.273Z,26.73
2023-04-18T15:32:08.926Z,26.67
2023-04-18T15:34:38.374Z,27.02
2023-04-18T15:37:08.173Z,26.55
2023-04-18T15:39:37.797Z,25.85
2023-04-18T15:42:07.973Z,26.52
2023-04-18T15:44:37.277Z,26.30
2023-04-18T15:47:06.885Z,25.85
2023-04-18T15:49:36.133Z,27.63
2023-04-18T15:52:07.800Z,27.20
2023-04-18T15:54:37.141Z,25.83
2023-04-18T15:57:06.670Z,25.58
2023-04-18T15:59:35.861Z,26.35
2023-04-18T16:02:07.860Z,26.52
2023-04-18T16:04:37.300Z,26.35
2023-04-18T16:07:07.392Z,27.40
2023-04-18T16:09:36.771Z,27.58
2023-04-18T16:12:08.102Z,27.42
2023-04-18T16:14:37.396Z,27.63
2023-04-18T16:17:06.766Z,26.75
2023-04-18T16:19:39.247Z,29.30
2023-04-18T16:22:08.838Z,26.58
2023-04-18T16:24:38.828Z,27.38
2023-04-18T16:27:08.789Z,26.02
2023-04-18T16:29:37.994Z,27.23
2023-04-18T16:32:07.755Z,27.40
2023-04-18T16:34:37.007Z,27.63
2023-04-18T16:37:06.496Z,27.90
2023-04-18T16:39:35.711Z,29.85
2023-04-18T16:42:05.014Z,29.17
2023-04-18T16:44:34.290Z,27.63
2023-04-18T16:47:05.880Z,27.75
2023-04-18T16:49:35.624Z,27.40
2023-04-18T16:52:04.875Z,28.30
2023-04-18T16:54:34.101Z,27.75
2023-04-18T16:57:03.761Z,28.27
2023-04-18T16:59:33.180Z,29.00
2023-04-18T17:02:02.451Z,28.25
2023-04-18T17:04:32.444Z,28.67
2023-04-18T17:07:01.757Z,29.27
2023-04-18T17:09:31.946Z,28.10
2023-04-18T17:12:02.853Z,28.25
2023-04-18T17:14:32.078Z,28.95
2023-04-18T17:17:01.634Z,30.67
2023-04-18T17:19:31.031Z,28.88
2023-04-18T17:22:00.334Z,30.33
2023-04-18T17:24:29.543Z,29.60
2023-04-18T17:26:58.926Z,30.70
2023-04-18T17:29:28.326Z,29.60
2023-04-18T17:31:57.598Z,29.58
2023-04-18T17:34:26.922Z,29.23
2023-04-18T17:36:56.149Z,29.38
2023-04-18T17:39:25.766Z,29.15
2023-04-18T17:41:55.246Z,29.35
2023-04-18T17:44:24.451Z,29.40
2023-04-18T17:46:53.641Z,30.45
2023-04-18T17:49:23.707Z,30.10
2023-04-18T17:51:53.016Z,31.10
2023-04-18T17:54:22.243Z,31.08
2023-04-18T17:56:51.385Z,29.40
2023-04-18T17:59:20.596Z,31.10
2023-04-18T18:01:49.980Z,29.98
2023-04-18T18:04:20.881Z,29.42
2023-04-18T18:06:58.466Z,31.67
2023-04-18T18:09:27.812Z,31.08
2023-04-18T18:11:57.059Z,30.48
2023-04-18T18:14:26.456Z,30.40
2023-04-18T18:16:55.745Z,29.70
2023-04-18T18:19:25.348Z,29.92
2023-04-18T18:21:54.574Z,31.13
2023-04-18T18:24:26.077Z,31.30
2023-04-18T18:26:55.446Z,31.35
2023-04-18T18:29:24.978Z,30.23
2023-04-18T18:31:54.265Z,31.75
2023-04-18T18:34:23.801Z,32.15
2023-04-18T18:36:53.132Z,31.90
2023-04-18T18:39:22.319Z,31.67
2023-04-18T18:41:51.757Z,32.55
2023-04-18T18:44:20.944Z,31.23
2023-04-18T18:46:50.192Z,32.05
2023-04-18T18:49:19.532Z,30.65
2023-04-18T18:51:48.721Z,32.13
2023-04-18T18:54:17.977Z,32.50
2023-04-18T18:56:47.649Z,31.40
2023-04-18T18:59:17.003Z,31.90
2023-04-18T19:01:46.428Z,32.17
2023-04-18T19:04:16.224Z,32.20
2023-04-18T19:06:45.489Z,32.30
2023-04-18T19:09:15.125Z,31.63
2023-04-18T19:11:44.455Z,31.38
2023-04-18T19:14:13.748Z,31.65
2023-04-18T19:16:43.033Z,32.08
2023-04-18T19:19:13.810Z,32.45
2023-04-18T19:21:46.754Z,33.10
2023-04-18T19:24:16.266Z,33.92
2023-04-18T19:26:45.554Z,33.90
2023-04-18T19:29:15.236Z,32.85
2023-04-18T19:31:44.766Z,32.65
2023-04-18T19:34:14.434Z,33.38
2023-04-18T19:36:43.669Z,35.05
2023-04-18T19:39:13.120Z,33.55
2023-04-18T19:41:47.031Z,35.08
2023-04-18T19:44:16.243Z,34.92
2023-04-18T19:46:45.472Z,33.63
2023-04-18T19:49:15.124Z,33.25
2023-04-18T19:51:44.423Z,35.28
2023-04-18T19:54:14.318Z,33.97
2023-04-18T19:56:43.471Z,34.78
2023-04-18T19:59:12.920Z,35.33
2023-04-18T20:01:42.341Z,36.40
2023-04-18T20:04:11.784Z,36.72
2023-04-18T20:06:41.572Z,35.17
2023-04-18T20:09:16.398Z,34.85
2023-04-18T20:11:47.443Z,34.47
2023-04-18T20:14:16.756Z,36.70
2023-04-18T20:16:47.173Z,36.45
2023-04-18T20:19:17.192Z,37.35
2023-04-18T20:21:46.607Z,35.58
2023-04-18T20:24:16.604Z,35.15
2023-04-18T20:26:45.897Z,35.50
2023-04-18T20:29:15.517Z,36.53
2023-04-18T20:31:44.898Z,35.08
2023-04-18T20:34:14.093Z,36.40
2023-04-18T20:36:43.371Z,37.72
2023-04-18T20:39:16.031Z,36.33
2023-04-18T20:41:49.428Z,37.60
2023-04-18T20:44:21.934Z,36.30
2023-04-18T20:46:51.367Z,36.90
2023-04-18T20:49:20.789Z,36.88
2023-04-18T20:51:50.118Z,36.78
2023-04-18T20:54:19.281Z,36.50
2023-04-18T20:56:48.537Z,37.80
2023-04-18T20:59:17.727Z,37.30
2023-04-18T21:01:47.882Z,36.55
2023-04-18T21:04:17.393Z,37.53
2023-04-18T21:06:46.869Z,37.05
2023-04-18T21:09:16.685Z,36.63
2023-04-18T21:11:46.090Z,36.97
2023-04-18T21:14:15.573Z,37.30
2023-04-18T21:16:45.969Z,37.25
2023-04-18T21:19:15.139Z,38.05
2023-04-18T21:21:44.383Z,37.15
2023-04-18T21:24:13.806Z,37.90
2023-04-18T21:26:43.308Z,38.80
2023-04-18T21:29:15.475Z,37.55
2023-04-18T21:31:44.757Z,37.35
2023-04-18T21:34:14.270Z,36.22
2023-04-18T21:36:43.706Z,37.58
2023-04-18T21:39:12.940Z,38.17
2023-04-18T21:41:43.107Z,39.47
2023-04-18T21:44:13.059Z,38.05
2023-04-18T21:46:42.490Z,38.85
2023-04-18T21:49:11.785Z,38.72
2023-04-18T21:51:41.027Z,38.35
2023-04-18T21:54:10.210Z,39.03
2023-04-18T21:56:39.786Z,38.35
2023-04-18T21:59:11.160Z,38.78
2023-04-18T22:01:40.575Z,37.90
2023-04-18T22:04:09.997Z,38.40
2023-04-18T22:06:39.294Z,38.10
2023-04-18T22:09:09.757Z,38.22
2023-04-18T22:11:39.308Z,39.63
2023-04-18T22:14:08.482Z,39.92
2023-04-18T22:16:39.180Z,39.17
2023-04-18T22:19:10.103Z,38.50
2023-04-18T22:21:39.471Z,40.78
2023-04-18T22:24:10.163Z,39.78
2023-04-18T22:26:39.509Z,40.70
2023-04-18T22:29:08.859Z,40.75
2023-04-18T22:31:38.154Z,40.30
2023-04-18T22:34:07.524Z,40.92
2023-04-18T22:36:36.945Z,41.05
2023-04-18T22:39:07.208Z,39.50
2023-04-18T22:41:36.782Z,39.65
2023-04-18T22:44:06.356Z,42.33
2023-04-18T22:46:35.937Z,40.33
2023-04-18T22:49:05.462Z,41.72
2023-04-18T22:51:35.161Z,39.45
2023-04-18T22:54:04.440Z,40.65
2023-04-18T22:56:33.811Z,41.85
2023-04-18T22:59:03.139Z,41.17
2023-04-18T23:01:32.397Z,40.10
2023-04-18T23:04:01.949Z,39.53
2023-04-18T23:06:32.461Z,40.92
2023-04-18T23:09:02.007Z,40.80
2023-04-18T23:11:31.485Z,42.90
2023-04-18T23:14:00.747Z,40.70
2023-04-18T23:16:30.067Z,41.30
2023-04-18T23:18:59.437Z,43.25
2023-04-18T23:21:29.096Z,42.95
2023-04-18T23:23:58.472Z,40.92
2023-04-18T23:26:28.042Z,42.20
2023-04-18T23:28:57.389Z,41.15
2023-04-18T23:31:26.812Z,42.70
2023-04-18T23:33:57.489Z,42.03
2023-04-18T23:36:28.320Z,42.38
2023-04-18T23:38:57.629Z,42.97
2023-04-18T23:41:26.994Z,41.70
2023-04-18T23:43:56.288Z,43.83
2023-04-18T23:46:25.584Z,42.13
2023-04-18T23:48:54.867Z,41.20
2023-04-18T23:51:24.170Z,41.30
2023-04-18T23:53:53.679Z,42.08
2023-04-18T23:56:24.242Z,40.47
2023-04-18T23:58:54.879Z,40.42
